createdAt,value
2022-11-03T00:02:25.988Z,101583.13
2022-11-03T00:04:55.674Z,101577.88
2022-11-03T00:07:25.441Z,101578.13
2022-11-03T00:09:55.161Z,101579.53
2022-11-03T00:12:25.292Z,101584.53
2022-11-03T00:14:55.121Z,101581.78
2022-11-03T00:17:24.784Z,101580.38
2022-11-03T00:19:54.587Z,101580.06
2022-11-03T00:22:24.315Z,101581.06
2022-11-03T00:24:54.278Z,101580.25
2022-11-03T00:27:23.992Z,101580.00
2022-11-03T00:29:53.717Z,101573.41
2022-11-03T00:32:23.661Z,101580.56
2022-11-03T00:34:53.386Z,101567.09
2022-11-03T00:37:23.256Z,101568.69
2022-11-03T00:39:52.987Z,101565.13
2022-11-03T00:42:22.845Z,101561.81
2022-11-03T00:44:52.634Z,101559.06
2022-11-03T00:47:24.292Z,101559.91
2022-11-03T00:49:54.444Z,101552.44
2022-11-03T00:52:24.205Z,101545.28
2022-11-03T00:54:55.318Z,101542.22
2022-11-03T00:57:25.492Z,101541.66
2022-11-03T00:59:55.135Z,101548.25
2022-11-03T01:02:24.870Z,101546.38
2022-11-03T01:05:13.722Z,101543.63
2022-11-03T01:07:43.288Z,101546.38
2022-11-03T01:10:13.221Z,101544.69
2022-11-03T01:12:42.811Z,101539.75
2022-11-03T01:15:12.461Z,101549.03
2022-11-03T01:17:42.209Z,101534.75
2022-11-03T01:20:12.037Z,101540.22
2022-11-03T01:22:41.783Z,101530.84
2022-11-03T01:25:11.464Z,101532.75
2022-11-03T01:27:41.140Z,101525.88
2022-11-03T01:30:11.816Z,101528.88
2022-11-03T01:32:41.586Z,101527.22
2022-11-03T01:35:11.305Z,101537.63
2022-11-03T01:37:41.051Z,101535.69
2022-11-03T01:40:12.148Z,101530.47
2022-11-03T01:42:42.112Z,101528.81
2022-11-03T01:45:11.866Z,101527.66
2022-11-03T01:47:46.661Z,101531.16
2022-11-03T01:50:20.516Z,101524.81
2022-11-03T01:52:59.568Z,101534.38
2022-11-03T01:55:40.138Z,101531.06
2022-11-03T01:58:25.224Z,101537.91
2022-11-03T02:00:59.862Z,101538.66
2022-11-03T02:03:41.923Z,101540.28
2022-11-03T02:06:11.893Z,101532.84
2022-11-03T02:09:04.735Z,101518.06
2022-11-03T02:11:56.101Z,101522.69
2022-11-03T02:14:26.066Z,101525.19
2022-11-03T02:17:06.444Z,101524.94
2022-11-03T02:20:02.708Z,101520.06
2022-11-03T02:23:13.464Z,101501.00
2022-11-03T02:25:46.063Z,101494.19
2022-11-03T02:28:26.399Z,101503.47
2022-11-03T02:31:27.493Z,101493.47
2022-11-03T02:34:14.184Z,101489.81
2022-11-03T02:36:59.306Z,101488.78
2022-11-03T02:39:47.527Z,101486.88
2022-11-03T02:42:23.828Z,101487.13
2022-11-03T02:45:03.227Z,101485.19
2022-11-03T02:47:39.298Z,101484.38
2022-11-03T02:50:13.598Z,101475.84
2022-11-03T02:52:49.403Z,101483.22
2022-11-03T02:55:42.947Z,101482.66
2022-11-03T02:58:42.070Z,101477.38
2022-11-03T03:01:47.653Z,101474.88
2022-11-03T03:04:43.305Z,101470.72
2022-11-03T03:07:30.517Z,101467.16
2022-11-03T03:10:29.761Z,101452.63
2022-11-03T03:13:05.013Z,101457.03
2022-11-03T03:16:07.298Z,101455.03
2022-11-03T03:18:56.194Z,101457.22
2022-11-03T03:21:41.035Z,101455.28
2022-11-03T03:24:49.540Z,101453.56
2022-11-03T03:27:28.042Z,101456.59
2022-11-03T03:30:07.766Z,101459.06
2022-11-03T03:32:46.377Z,101460.72
2022-11-03T03:35:31.008Z,101454.47
2022-11-03T03:38:19.193Z,101449.00
2022-11-03T03:40:57.903Z,101440.00
2022-11-03T03:43:32.765Z,101450.72
2022-11-03T03:46:14.202Z,101438.34
2022-11-03T03:48:44.767Z,101439.44
2022-11-03T03:51:23.667Z,101435.63
2022-11-03T03:53:54.936Z,101430.72
2022-11-03T03:56:41.018Z,101432.09
2022-11-03T03:59:10.976Z,101442.50
2022-11-03T04:01:41.083Z,101438.09
2022-11-03T04:04:11.186Z,101438.03
2022-11-03T04:06:41.270Z,101434.13
2022-11-03T04:09:11.424Z,101430.56
2022-11-03T04:12:00.139Z,101423.41
2022-11-03T04:14:48.906Z,101427.00
2022-11-03T04:17:40.721Z,101436.31
2022-11-03T04:20:32.617Z,101427.50
2022-11-03T04:23:02.727Z,101437.06
2022-11-03T04:25:32.792Z,101436.75
2022-11-03T04:28:13.343Z,101426.88
2022-11-03T04:30:43.605Z,101429.28
2022-11-03T04:33:21.952Z,101422.16
2022-11-03T04:35:58.462Z,101415.84
2022-11-03T04:38:30.130Z,101410.63
2022-11-03T04:41:00.284Z,101407.03
2022-11-03T04:43:36.814Z,101405.97
2022-11-03T04:46:16.250Z,101404.28
2022-11-03T04:48:47.630Z,101398.25
2022-11-03T04:51:25.749Z,101400.44
2022-11-03T04:54:12.641Z,101397.13
2022-11-03T04:56:42.685Z,101399.88
2022-11-03T04:59:16.543Z,101401.75
2022-11-03T05:01:47.658Z,101395.19
2022-11-03T05:04:19.079Z,101389.47
2022-11-03T05:06:53.432Z,101388.72
2022-11-03T05:09:32.417Z,101388.19
2022-11-03T05:12:02.413Z,101377.03
2022-11-03T05:14:33.313Z,101375.97
2022-11-03T05:17:28.306Z,101377.59
2022-11-03T05:20:04.246Z,101373.22
2022-11-03T05:22:38.208Z,101372.69
2022-11-03T05:25:42.271Z,101368.03
2022-11-03T05:28:35.545Z,101358.50
2022-11-03T05:31:32.755Z,101349.75
2022-11-03T05:34:32.426Z,101345.66
2022-11-03T05:37:27.432Z,101339.59
2022-11-03T05:40:27.006Z,101334.47
2022-11-03T05:43:01.859Z,101345.00
2022-11-03T05:45:37.712Z,101342.53
2022-11-03T05:48:37.492Z,101335.63
2022-11-03T05:51:31.965Z,101337.50
2022-11-03T05:54:15.506Z,101333.63
2022-11-03T05:56:48.121Z,101341.84
2022-11-03T05:59:29.775Z,101344.59
2022-11-03T06:02:01.572Z,101337.19
2022-11-03T06:04:40.472Z,101338.53
2022-11-03T06:07:32.006Z,101344.00
2022-11-03T06:09:59.506Z,101338.78
2022-11-03T06:12:30.838Z,101338.47
2022-11-03T06:15:00.590Z,101338.47
2022-11-03T06:17:30.690Z,101337.06
2022-11-03T06:20:01.063Z,101336.25
2022-11-03T06:22:39.098Z,101337.06
2022-11-03T06:25:36.963Z,101335.16
2022-11-03T06:28:24.233Z,101347.22
2022-11-03T06:30:52.502Z,101346.06
2022-11-03T06:33:33.833Z,101348.22
2022-11-03T06:36:19.726Z,101342.19
2022-11-03T06:39:08.866Z,101336.94
2022-11-03T06:41:39.217Z,101339.44
2022-11-03T06:44:29.227Z,101330.06
2022-11-03T06:47:28.374Z,101336.38
2022-11-03T06:50:01.197Z,101340.22
2022-11-03T06:52:42.969Z,101342.69
2022-11-03T06:55:16.731Z,101331.47
2022-11-03T06:57:54.462Z,101330.41
2022-11-03T07:00:35.341Z,101321.06
2022-11-03T07:03:30.770Z,101321.66
2022-11-03T07:06:30.273Z,101320.63
2022-11-03T07:09:06.791Z,101317.09
2022-11-03T07:11:55.686Z,101317.19
2022-11-03T07:14:36.931Z,101321.06
2022-11-03T07:17:21.880Z,101315.63
2022-11-03T07:19:53.022Z,101314.84
2022-11-03T07:22:27.326Z,101319.03
2022-11-03T07:25:06.294Z,101317.75
2022-11-03T07:27:40.420Z,101317.88
2022-11-03T07:30:30.873Z,101310.34
2022-11-03T07:33:16.391Z,101316.72
2022-11-03T07:36:20.226Z,101314.63
2022-11-03T07:38:40.472Z,101315.00
2022-11-03T07:41:32.867Z,101314.53
2022-11-03T07:44:03.783Z,101316.78
2022-11-03T07:46:33.781Z,101319.09
2022-11-03T07:49:04.479Z,101312.59
2022-11-03T07:51:41.263Z,101313.44
2022-11-03T07:54:21.756Z,101308.81
2022-11-03T07:57:11.232Z,101305.53
2022-11-03T07:59:50.686Z,101304.75
2022-11-03T08:03:00.989Z,101298.16
2022-11-03T08:05:31.044Z,101295.41
2022-11-03T08:08:01.093Z,101295.97
2022-11-03T08:10:31.645Z,101295.44
2022-11-03T08:13:01.918Z,101298.72
2022-11-03T08:15:31.919Z,101295.69
2022-11-03T08:18:02.019Z,101286.88
2022-11-03T08:20:32.167Z,101282.16
2022-11-03T08:23:24.885Z,101269.50
2022-11-03T08:25:52.265Z,101275.53
2022-11-03T08:28:23.435Z,101271.59
2022-11-03T08:30:53.561Z,101266.81
2022-11-03T08:33:23.626Z,101257.34
2022-11-03T08:35:53.786Z,101245.59
2022-11-03T08:38:23.918Z,101255.34
2022-11-03T08:40:56.766Z,101250.19
2022-11-03T08:43:27.175Z,101243.06
2022-11-03T08:46:03.414Z,101235.97
2022-11-03T08:48:40.755Z,101230.63
2022-11-03T08:51:13.733Z,101230.81
2022-11-03T08:53:44.507Z,101230.50
2022-11-03T08:56:20.469Z,101222.97
2022-11-03T08:58:52.314Z,101222.25
2022-11-03T09:01:22.404Z,101215.53
2022-11-03T09:03:52.638Z,101209.47
2022-11-03T09:06:22.702Z,101199.19
2022-11-03T09:11:42.752Z,101209.97
2022-11-03T09:14:13.482Z,101206.47
2022-11-03T09:16:43.570Z,101211.75
2022-11-03T09:19:13.579Z,101203.22
2022-11-03T09:21:43.589Z,101202.25
2022-11-03T09:24:13.721Z,101199.94
2022-11-03T09:26:44.262Z,101196.84
2022-11-03T09:29:14.482Z,101183.63
2022-11-03T09:31:47.281Z,101184.56
2022-11-03T09:34:17.406Z,101175.47
2022-11-03T09:36:52.982Z,101169.22
2022-11-03T09:39:23.359Z,101161.88
2022-11-03T09:41:59.011Z,101172.03
2022-11-03T09:44:34.015Z,101156.53
2022-11-03T09:47:06.955Z,101157.34
2022-11-03T09:49:37.353Z,101147.75
2022-11-03T09:52:07.417Z,101149.19
2022-11-03T09:54:37.443Z,101139.72
2022-11-03T09:57:16.389Z,101135.63
2022-11-03T09:59:51.030Z,101133.94
2022-11-03T10:02:31.788Z,101132.59
2022-11-03T10:05:08.266Z,101134.75
2022-11-03T10:07:45.085Z,101122.06
2022-11-03T10:10:22.281Z,101113.47
2022-11-03T10:12:53.632Z,101118.38
2022-11-03T10:15:27.427Z,101103.84
2022-11-03T10:17:57.792Z,101107.63
2022-11-03T10:20:30.808Z,101094.84
2022-11-03T10:23:00.774Z,101093.19
2022-11-03T10:25:46.115Z,101079.47
2022-11-03T10:28:30.030Z,101085.50
2022-11-03T10:31:20.633Z,101087.00
2022-11-03T10:33:56.070Z,101084.53
2022-11-03T10:36:33.618Z,101079.47
2022-11-03T10:39:30.845Z,101072.41
2022-11-03T10:42:00.854Z,101063.25
2022-11-03T10:44:31.537Z,101067.53
2022-11-03T10:47:07.042Z,101058.88
2022-11-03T10:49:39.452Z,101061.47
2022-11-03T10:52:31.384Z,101054.28
2022-11-03T10:55:01.493Z,101050.34
2022-11-03T10:57:32.771Z,101050.03
2022-11-03T11:00:04.674Z,101039.53
2022-11-03T11:02:36.851Z,101038.25
2022-11-03T11:05:20.029Z,101038.41
2022-11-03T11:07:54.532Z,101028.75
2022-11-03T11:10:31.652Z,101028.41
2022-11-03T11:13:19.383Z,101022.69
2022-11-03T11:15:56.948Z,101020.38
2022-11-03T11:18:30.080Z,101014.50
2022-11-03T11:21:25.137Z,101010.59
2022-11-03T11:23:55.220Z,101006.34
2022-11-03T11:26:25.094Z,101001.41
2022-11-03T11:29:10.427Z,100995.72
2022-11-03T11:32:50.031Z,100980.34
2022-11-03T11:35:24.041Z,100984.44
2022-11-03T11:37:55.064Z,100977.06
2022-11-03T11:40:24.974Z,100979.03
2022-11-03T11:43:06.924Z,100972.13
2022-11-03T11:46:20.721Z,100959.41
2022-11-03T11:49:20.410Z,100953.66
2022-11-03T11:51:52.179Z,100963.34
2022-11-03T11:54:22.320Z,100951.06
2022-11-03T11:56:51.610Z,100940.25
2022-11-03T11:59:26.033Z,100939.94
2022-11-03T12:02:17.589Z,100946.97
2022-11-03T12:04:52.920Z,100936.84
2022-11-03T12:07:37.432Z,100931.59
2022-11-03T12:10:19.033Z,100924.25
2022-11-03T12:12:50.653Z,100921.97
2022-11-03T12:15:57.492Z,100916.53
2022-11-03T12:18:46.043Z,100921.16
2022-11-03T12:21:56.342Z,100913.31
2022-11-03T12:24:55.623Z,100907.06
2022-11-03T12:27:24.673Z,100911.66
2022-11-03T12:29:58.116Z,100909.03
2022-11-03T12:32:35.991Z,100903.63
2022-11-03T12:35:09.343Z,100897.44
2022-11-03T12:37:37.819Z,100894.81
2022-11-03T12:40:08.913Z,100893.47
2022-11-03T12:42:38.234Z,100887.09
2022-11-03T12:45:09.149Z,100890.38
2022-11-03T12:47:38.682Z,100885.31
2022-11-03T12:50:09.395Z,100884.03
2022-11-03T12:52:39.175Z,100883.06
2022-11-03T12:55:12.494Z,100880.41
2022-11-03T12:57:42.438Z,100878.13
2022-11-03T13:00:14.502Z,100866.53
2022-11-03T13:02:42.719Z,100859.00
2022-11-03T13:05:15.432Z,100855.06
2022-11-03T13:07:43.621Z,100859.28
2022-11-03T13:10:12.831Z,100847.34
2022-11-03T13:12:41.759Z,100839.00
2022-11-03T13:15:13.659Z,100835.09
2022-11-03T13:18:11.491Z,100831.63
2022-11-03T13:20:36.287Z,100820.50
2022-11-03T13:23:06.934Z,100818.41
2022-11-03T13:25:37.216Z,100810.88
2022-11-03T13:28:10.368Z,100808.25
2022-11-03T13:30:41.515Z,100810.16
2022-11-03T13:33:10.488Z,100806.72
2022-11-03T13:35:40.313Z,100794.75
2022-11-03T13:38:10.030Z,100780.50
2022-11-03T13:40:57.218Z,100789.19
2022-11-03T13:43:26.731Z,100775.41
2022-11-03T13:46:05.579Z,100765.66
2022-11-03T13:51:25.389Z,100751.25
2022-11-03T13:59:35.854Z,100741.63
2022-11-03T14:04:58.245Z,100728.91
2022-11-03T14:07:27.458Z,100735.94
2022-11-03T14:09:59.330Z,100737.09
2022-11-03T14:12:31.330Z,100731.84
2022-11-03T14:15:11.881Z,100732.69
2022-11-03T14:17:41.669Z,100726.28
2022-11-03T14:20:13.386Z,100713.72
2022-11-03T14:22:43.600Z,100716.88
2022-11-03T14:25:13.004Z,100712.78
2022-11-03T14:27:42.969Z,100708.91
2022-11-03T14:30:17.152Z,100700.41
2022-11-03T14:32:47.555Z,100706.50
2022-11-03T14:35:17.042Z,100696.88
2022-11-03T14:37:46.613Z,100695.91
2022-11-03T14:40:33.751Z,100700.34
2022-11-03T14:43:03.523Z,100683.88
2022-11-03T14:45:35.836Z,100674.75
2022-11-03T14:48:07.804Z,100663.16
2022-11-03T14:50:37.830Z,100665.16
2022-11-03T14:53:10.779Z,100662.81
2022-11-03T14:55:40.321Z,100653.38
2022-11-03T14:58:11.151Z,100647.66
2022-11-03T15:00:40.388Z,100649.13
2022-11-03T15:03:10.069Z,100642.91
2022-11-03T15:05:45.808Z,100632.47
2022-11-03T15:08:19.009Z,100618.44
2022-11-03T15:10:47.291Z,100620.22
2022-11-03T15:13:17.600Z,100616.28
2022-11-03T15:15:47.457Z,100612.72
2022-11-03T15:18:18.242Z,100607.34
2022-11-03T15:20:47.982Z,100605.88
2022-11-03T15:26:08.153Z,100603.53
2022-11-03T15:28:37.924Z,100596.06
2022-11-03T15:31:08.101Z,100603.88
2022-11-03T15:33:38.063Z,100599.31
2022-11-03T15:36:09.128Z,100593.72
2022-11-03T15:38:38.779Z,100584.47
2022-11-03T15:41:18.002Z,100579.88
2022-11-03T15:43:50.699Z,100577.25
2022-11-03T15:46:21.006Z,100573.97
2022-11-03T15:48:51.025Z,100577.25
2022-11-03T15:51:21.362Z,100561.75
2022-11-03T15:53:55.172Z,100560.31
2022-11-03T15:56:28.263Z,100556.06
2022-11-03T15:58:58.172Z,100543.00
2022-11-03T16:01:28.432Z,100534.53
2022-11-03T16:03:58.642Z,100532.22
2022-11-03T16:06:53.877Z,100527.00
2022-11-03T16:09:18.207Z,100517.41
2022-11-03T16:11:48.020Z,100516.75
2022-11-03T16:14:19.140Z,100512.34
2022-11-03T16:16:49.217Z,100506.47
2022-11-03T16:19:19.002Z,100498.97
2022-11-03T16:21:48.924Z,100496.22
2022-11-03T16:24:19.021Z,100493.13
2022-11-03T16:26:50.834Z,100489.84
2022-11-03T16:29:23.987Z,100483.47
2022-11-03T16:31:54.160Z,100484.31
2022-11-03T16:34:21.447Z,100477.63
2022-11-03T16:36:51.112Z,100477.47
2022-11-03T16:39:21.071Z,100472.38
2022-11-03T16:41:57.093Z,100475.50
2022-11-03T16:44:25.128Z,100467.81
2022-11-03T16:46:55.011Z,100464.91
2022-11-03T16:49:24.939Z,100450.72
2022-11-03T16:51:54.787Z,100446.31
2022-11-03T16:54:24.783Z,100443.69
2022-11-03T16:56:55.137Z,100447.47
2022-11-03T16:59:26.536Z,100446.31
2022-11-03T17:01:57.035Z,100441.91
2022-11-03T17:04:27.386Z,100440.91
2022-11-03T17:06:57.047Z,100441.22
2022-11-03T17:09:26.768Z,100432.56
2022-11-03T17:11:56.782Z,100425.78
2022-11-03T17:14:26.699Z,100413.09
2022-11-03T17:16:59.922Z,100410.81
2022-11-03T17:19:29.708Z,100408.34
2022-11-03T17:21:59.504Z,100399.06
2022-11-03T17:24:29.526Z,100395.97
2022-11-03T17:27:27.642Z,100407.84
2022-11-03T17:30:12.021Z,100407.34
2022-11-03T17:32:44.456Z,100399.19
2022-11-03T17:35:22.419Z,100396.59
2022-11-03T17:37:54.020Z,100384.91
2022-11-03T17:40:26.468Z,100401.03
2022-11-03T17:42:57.638Z,100397.91
2022-11-03T17:45:29.318Z,100387.50
2022-11-03T17:47:59.326Z,100379.88
2022-11-03T17:50:29.408Z,100380.19
2022-11-03T17:52:59.462Z,100373.34
2022-11-03T17:55:33.261Z,100372.38
2022-11-03T17:58:05.801Z,100372.06
2022-11-03T18:00:37.559Z,100352.81
2022-11-03T18:03:15.615Z,100351.03
2022-11-03T18:05:45.717Z,100350.84
2022-11-03T18:08:17.845Z,100340.28
2022-11-03T18:10:54.247Z,100327.25
2022-11-03T18:13:34.439Z,100324.81
2022-11-03T18:16:13.957Z,100319.28
2022-11-03T18:18:45.932Z,100317.63
2022-11-03T18:21:22.414Z,100307.53
2022-11-03T18:23:52.495Z,100278.72
2022-11-03T18:26:26.926Z,100281.97
2022-11-03T18:28:58.186Z,100276.25
2022-11-03T18:31:50.813Z,100267.47
2022-11-03T18:34:27.193Z,100254.94
2022-11-03T18:36:56.694Z,100246.63
2022-11-03T18:39:29.968Z,100233.63
2022-11-03T18:41:58.279Z,100226.75
2022-11-03T18:44:30.716Z,100227.72
2022-11-03T18:47:02.734Z,100221.84
2022-11-03T18:49:33.308Z,100216.81
2022-11-03T18:52:13.699Z,100198.09
2022-11-03T18:54:52.443Z,100194.38
2022-11-03T18:57:27.708Z,100186.56
2022-11-03T18:59:57.952Z,100189.50
2022-11-03T19:02:28.570Z,100181.50
2022-11-03T19:04:58.934Z,100174.69
2022-11-03T19:07:33.123Z,100169.81
2022-11-03T19:10:15.101Z,100175.16
2022-11-03T19:12:47.278Z,100176.97
2022-11-03T19:15:24.153Z,100173.03
2022-11-03T19:18:01.019Z,100172.88
2022-11-03T19:20:31.312Z,100166.06
2022-11-03T19:23:00.882Z,100166.06
2022-11-03T19:25:28.285Z,100162.94
2022-11-03T19:27:58.412Z,100155.31
2022-11-03T19:30:28.669Z,100151.88
2022-11-03T19:32:58.833Z,100152.72
2022-11-03T19:35:38.423Z,100144.41
2022-11-03T19:38:15.296Z,100140.81
2022-11-03T19:41:07.081Z,100142.78
2022-11-03T19:43:36.908Z,100131.88
2022-11-03T19:46:18.929Z,100118.38
2022-11-03T19:48:49.035Z,100108.63
2022-11-03T19:51:19.557Z,100104.41
2022-11-03T19:53:48.674Z,100103.09
2022-11-03T19:56:18.905Z,100096.41
2022-11-03T19:58:48.387Z,100089.78
2022-11-03T20:01:18.728Z,100085.19
2022-11-03T20:03:48.995Z,100078.53
2022-11-03T20:06:19.511Z,100075.78
2022-11-03T20:08:49.746Z,100067.63
2022-11-03T20:11:20.482Z,100072.53
2022-11-03T20:13:50.367Z,100075.28
2022-11-03T20:16:20.371Z,100080.50
2022-11-03T20:18:50.274Z,100076.28
2022-11-03T20:21:22.799Z,100076.41
2022-11-03T20:23:53.152Z,100082.94
2022-11-03T20:26:26.229Z,100067.63
2022-11-03T20:28:57.953Z,100069.41
2022-11-03T20:31:27.650Z,100061.13
2022-11-03T20:33:57.581Z,100066.34
2022-11-03T20:36:29.926Z,100067.94
2022-11-03T20:39:01.254Z,100066.31
2022-11-03T20:41:31.684Z,100062.88
2022-11-03T20:44:01.275Z,100058.13
2022-11-03T20:46:33.833Z,100054.22
2022-11-03T20:49:04.143Z,100053.72
2022-11-03T20:51:42.190Z,100048.66
2022-11-03T20:54:22.009Z,100037.16
2022-11-03T20:56:51.173Z,100035.66
2022-11-03T20:59:24.716Z,100044.09
2022-11-03T21:01:54.947Z,100037.59
2022-11-03T21:04:29.798Z,100044.41
2022-11-03T21:06:57.257Z,100043.22
2022-11-03T21:09:26.951Z,100036.25
2022-11-03T21:11:56.887Z,100033.91
2022-11-03T21:14:32.900Z,100035.72
2022-11-03T21:17:20.295Z,100038.94
2022-11-03T21:19:59.414Z,100031.63
2022-11-03T21:22:55.379Z,100035.16
2022-11-03T21:25:25.315Z,100030.97
2022-11-03T21:27:55.663Z,100027.31
2022-11-03T21:30:25.606Z,100022.28
2022-11-03T21:32:55.637Z,100017.56
2022-11-03T21:35:25.627Z,100011.56
2022-11-03T21:37:55.733Z,100010.75
2022-11-03T21:40:25.637Z,99997.25
2022-11-03T21:43:14.205Z,100003.28
2022-11-03T21:45:44.500Z,99991.75
2022-11-03T21:48:32.990Z,99998.91
2022-11-03T21:51:03.140Z,99988.69
2022-11-03T21:53:33.229Z,99997.75
2022-11-03T21:56:03.217Z,99988.38
2022-11-03T21:58:33.115Z,99993.25
2022-11-03T22:01:05.300Z,99980.78
2022-11-03T22:03:34.926Z,99974.63
2022-11-03T22:06:08.631Z,99985.00
2022-11-03T22:08:37.608Z,99985.50
2022-11-03T22:11:23.100Z,99995.09
2022-11-03T22:14:01.709Z,99994.13
2022-11-03T22:16:37.652Z,99985.69
2022-11-03T22:19:39.106Z,99992.97
2022-11-03T22:22:33.126Z,99987.16
2022-11-03T22:25:21.727Z,99992.69
2022-11-03T22:27:51.844Z,99975.78
2022-11-03T22:30:40.682Z,99969.91
2022-11-03T22:33:12.524Z,99965.53
2022-11-03T22:36:01.357Z,99971.84
2022-11-03T22:38:50.663Z,99970.88
2022-11-03T22:41:39.187Z,99976.53
2022-11-03T22:44:27.862Z,99966.50
2022-11-03T22:46:57.956Z,99956.28
2022-11-03T22:49:28.159Z,99959.16
2022-11-03T22:51:58.276Z,99950.44
2022-11-03T22:54:28.702Z,99951.56
2022-11-03T22:56:58.761Z,99941.97
2022-11-03T22:59:28.972Z,99940.69
2022-11-03T23:01:59.047Z,99938.53
2022-11-03T23:04:29.265Z,99949.38
2022-11-03T23:06:59.255Z,99946.97
2022-11-03T23:09:29.340Z,99945.31
2022-11-03T23:11:59.375Z,99950.69
2022-11-03T23:14:49.355Z,99944.19
2022-11-03T23:17:19.451Z,99936.03
2022-11-03T23:20:07.963Z,99939.44
2022-11-03T23:22:38.013Z,99928.88
2022-11-03T23:25:08.665Z,99928.47
2022-11-03T23:27:38.679Z,99922.28
2022-11-03T23:30:09.304Z,99920.78
2022-11-03T23:32:39.337Z,99921.09
2022-11-03T23:35:10.644Z,99911.03
2022-11-03T23:37:40.587Z,99910.03
2022-11-03T23:40:15.878Z,99915.03
2022-11-03T23:42:48.810Z,99907.38
2022-11-03T23:45:37.277Z,99902.22
2022-11-03T23:48:27.477Z,99920.16
2022-11-03T23:50:57.446Z,99909.78
2022-11-03T23:53:27.442Z,99903.28
2022-11-03T23:56:19.785Z,99902.78
2022-11-03T23:58:51.723Z,99891.25
